| time (UTC) | temp C | wind direction | speed KPH | gust KPH | rain 1hr cm | rain 24hr cm | rain mn cm | humidity % | barometer mb |
| 20260505124943 | 13 | 213 | 3.2 | 9.7 | 0.00 | 0.48 | 0.48 | 85 | 1009.2 |
| 20260505124440 | 13 | 350 | 3.2 | 6.4 | 0.00 | 0.48 | 0.48 | 85 | 1009.1 |
| 20260505123936 | 13 | 323 | 3.2 | 4.8 | 0.13 | 0.48 | 0.48 | 84 | 1009.0 |
| 20260505123433 | 13 | 42 | 3.2 | 4.8 | 0.30 | 0.48 | 0.48 | 84 | 1008.6 |
| 20260505122929 | 13 | 15 | 4.8 | 6.4 | 0.00 | 0.43 | 0.43 | 84 | 1008.8 |
| 20260505122427 | 13 | 314 | 3.2 | 6.4 | 0.00 | 0.43 | 0.43 | 83 | 1008.4 |
| 20260505121923 | 13 | 359 | 8.0 | 11.3 | 0.00 | 0.43 | 0.43 | 83 | 1008.9 |
| 20260505121420 | 13 | 3 | 1.6 | 9.7 | 0.00 | 0.43 | 0.43 | 83 | 1008.8 |
| 20260505120916 | 13 | 279 | 3.2 | 4.8 | 0.00 | 0.43 | 0.43 | 83 | 1008.8 |
| 20260505120413 | 13 | 359 | 3.2 | 12.9 | 0.00 | 0.43 | 0.43 | 83 | 1008.8 |
| 20260505115911 | 13 | 208 | 3.2 | 6.4 | 0.00 | 0.43 | 0.43 | 84 | 1008.9 |
| 20260505115408 | 14 | 41 | 8.0 | 12.9 | 0.00 | 0.43 | 0.43 | 85 | 1009.0 |
| 20260505114906 | 14 | 6 | 6.4 | 12.9 | 0.00 | 0.43 | 0.43 | 85 | 1008.9 |
| 20260505114402 | 14 | 236 | 1.6 | 6.4 | 0.00 | 0.43 | 0.43 | 86 | 1009.0 |
| 20260505113859 | 14 | 311 | 1.6 | 6.4 | 0.00 | 0.43 | 0.43 | 86 | 1008.6 |
| 20260505113356 | 14 | 297 | 0.0 | 1.6 | 0.00 | 0.43 | 0.43 | 86 | 1008.9 |
| 20260505112851 | 14 | 275 | 0.0 | 3.2 | 0.00 | 0.43 | 0.43 | 86 | 1008.9 |
| 20260505112349 | 14 | 305 | 0.0 | 4.8 | 0.00 | 0.43 | 0.43 | 86 | 1009.1 |
| 20260505111845 | 14 | 343 | 4.8 | 4.8 | 0.00 | 0.43 | 0.43 | 86 | 1008.8 |
| 20260505111340 | 14 | 338 | 1.6 | 3.2 | 0.00 | 0.43 | 0.43 | 86 | 1008.4 |
| 20260505110836 | 14 | 343 | 3.2 | 4.8 | 0.00 | 0.43 | 0.43 | 86 | 1008.4 |
| 20260505110334 | 14 | 286 | 1.6 | 3.2 | 0.00 | 0.43 | 0.43 | 86 | 1008.1 |
| 20260505101809 | 14 | 248 | 0.0 | 1.6 | 0.00 | 0.43 | 0.43 | 86 | 1007.6 |
| 20260505101304 | 14 | 247 | 0.0 | 0.0 | 0.00 | 0.43 | 0.43 | 86 | 1007.0 |
| 20260505100800 | 14 | 329 | 3.2 | 3.2 | 0.00 | 0.43 | 0.43 | 86 | 1007.1 |
| 20260505100257 | 14 | 260 | 0.0 | 1.6 | 0.00 | 0.43 | 0.43 | 86 | 1007.3 |
| 20260505095753 | 14 | 291 | 0.0 | 0.0 | 0.00 | 0.43 | 0.43 | 86 | 1007.1 |
| 20260505095251 | 14 | 222 | 3.2 | 4.8 | 0.00 | 0.43 | 0.43 | 86 | 1007.1 |
| 20260505094746 | 14 | 184 | 3.2 | 4.8 | 0.00 | 0.43 | 0.43 | 86 | 1007.0 |
| 20260505094243 | 14 | 163 | 6.4 | 6.4 | 0.00 | 0.43 | 0.43 | 86 | 1007.0 |
| 20260505093739 | 14 | 221 | 3.2 | 4.8 | 0.00 | 0.43 | 0.43 | 86 | 1006.9 |
| 20260505093237 | 14 | 216 | 3.2 | 4.8 | 0.00 | 0.43 | 0.43 | 86 | 1006.8 |
| 20260505092733 | 14 | 168 | 3.2 | 4.8 | 0.00 | 0.43 | 0.43 | 86 | 1006.4 |
| 20260505092232 | 13 | 203 | 3.2 | 3.2 | 0.00 | 0.43 | 0.43 | 85 | 1006.5 |
| 20260505091728 | 13 | 206 | 3.2 | 4.8 | 0.00 | 0.43 | 0.43 | 85 | 1006.4 |
| 20260505091227 | 13 | 211 | 4.8 | 6.4 | 0.00 | 0.43 | 0.43 | 84 | 1006.9 |
| 20260505090724 | 13 | 266 | 0.0 | 1.6 | 0.00 | 0.43 | 0.43 | 84 | 1007.2 |
| 20260505090223 | 13 | 172 | 3.2 | 4.8 | 0.00 | 0.43 | 0.43 | 83 | 1007.3 |
| 20260505085719 | 14 | 181 | 3.2 | 3.2 | 0.00 | 0.43 | 0.43 | 83 | 1007.5 |
| 20260505085218 | 14 | 197 | 3.2 | 3.2 | 0.00 | 0.43 | 0.43 | 83 | 1007.5 |
| 20260505084714 | 14 | 212 | 3.2 | 3.2 | 0.00 | 0.43 | 0.43 | 82 | 1007.3 |
| 20260505084214 | 14 | 200 | 3.2 | 4.8 | 0.13 | 0.43 | 0.43 | 81 | 1006.9 |
| 20260505083710 | 14 | 251 | 0.0 | 0.0 | 0.13 | 0.43 | 0.43 | 81 | 1006.7 |
| 20260505083207 | 14 | 218 | 3.2 | 3.2 | 0.00 | 0.41 | 0.41 | 80 | 1006.4 |
| 20260505082702 | 15 | 229 | 1.6 | 3.2 | 0.18 | 0.41 | 0.41 | 80 | 1006.4 |
| 20260505082200 | 15 | 234 | 0.0 | 1.6 | 0.30 | 0.41 | 0.41 | 79 | 1006.8 |
| 20260505081655 | 15 | 253 | 0.0 | 3.2 | 0.13 | 0.38 | 0.38 | 77 | 1007.3 |
| 20260505081153 | 15 | 313 | 1.6 | 3.2 | 0.18 | 0.36 | 0.36 | 76 | 1007.8 |
| 20260505080650 | 15 | 236 | 0.0 | 0.0 | 0.18 | 0.33 | 0.33 | 75 | 1007.9 |
| 20260505080146 | 15 | 331 | 1.6 | 1.6 | 0.18 | 0.33 | 0.33 | 74 | 1008.3 |
| 20260505075642 | 15 | 288 | 0.0 | 0.0 | 0.13 | 0.30 | 0.30 | 73 | 1008.3 |
| 20260505075139 | 16 | 253 | 0.0 | 0.0 | 0.43 | 0.30 | 0.30 | 72 | 1007.9 |
| 20260505074636 | 16 | 248 | 0.0 | 0.0 | 0.48 | 0.28 | 0.28 | 70 | 1007.7 |
| 20260505074133 | 16 | 188 | 3.2 | 3.2 | 0.61 | 0.23 | 0.23 | 69 | 1007.7 |
| 20260505073631 | 17 | 218 | 1.6 | 3.2 | 0.89 | 0.20 | 0.20 | 66 | 1008.1 |
| 20260505073129 | 17 | 256 | 0.0 | 6.4 | 0.48 | 0.13 | 0.13 | 65 | 1008.6 |
| 20260505072624 | 17 | 307 | 1.6 | 3.2 | 0.30 | 0.05 | 0.05 | 63 | 1008.2 |
| 20260505072121 | 18 | 297 | 3.2 | 4.8 | 0.30 | 0.05 | 0.05 | 61 | 1008.0 |
| 20260505071617 | 18 | 302 | 1.6 | 3.2 | 0.00 | 0.00 | 0.00 | 59 | 1007.8 |
| 20260505071115 | 18 | 310 | 0.0 | 3.2 | 0.00 | 0.00 | 0.00 | 59 | 1007.6 |
| 20260505070612 | 18 | 359 | 1.6 | 1.6 | 0.00 | 0.00 | 0.00 | 58 | 1007.7 |
| 20260505070108 | 18 | 174 | 3.2 | 6.4 | 0.00 | 0.00 | 0.00 | 57 | 1007.5 |
| 20260505065604 | 18 | 344 | 6.4 | 17.7 | 0.00 | 0.00 | 0.00 | 57 | 1007.2 |
| 20260505065100 | 18 | 30 | 8.0 | 17.7 | 0.00 | 0.00 | 0.00 | 58 | 1007.6 |
| 20260505064557 | 19 | 10 | 9.7 | 14.5 | 0.00 | 0.00 | 0.00 | 61 | 1007.8 |
| 20260505064056 | 19 | 286 | 4.8 | 12.9 | 0.00 | 0.00 | 0.00 | 62 | 1008.3 |
| 20260505063553 | 19 | 283 | 1.6 | 6.4 | 0.00 | 0.00 | 0.00 | 62 | 1007.0 |
| 20260505063048 | 19 | 182 | 6.4 | 9.7 | 0.00 | 0.00 | 0.00 | 62 | 1006.3 |
| 20260505062545 | 19 | 230 | 3.2 | 6.4 | 0.00 | 0.00 | 0.00 | 62 | 1006.4 |
| 20260505062042 | 19 | 225 | 4.8 | 9.7 | 0.00 | 0.00 | 0.00 | 62 | 1006.1 |
| 20260505061540 | 19 | 203 | 4.8 | 9.7 | 0.00 | 0.00 | 0.00 | 62 | 1005.5 |
| 20260505061038 | 19 | 181 | 6.4 | 12.9 | 0.00 | 0.00 | 0.00 | 62 | 1005.3 |
| 20260505060535 | 19 | 228 | 4.8 | 11.3 | 0.00 | 0.00 | 0.00 | 62 | 1005.3 |
| 20260505060031 | 19 | 221 | 6.4 | 9.7 | 0.00 | 0.00 | 0.00 | 62 | 1005.6 |
| 20260505055527 | 19 | 200 | 6.4 | 9.7 | 0.00 | 0.00 | 0.00 | 61 | 1005.3 |
| 20260505055024 | 19 | 233 | 4.8 | 12.9 | 0.00 | 0.00 | 0.00 | 61 | 1005.3 |
| 20260505054521 | 19 | 185 | 8.0 | 14.5 | 0.00 | 0.00 | 0.00 | 61 | 1005.2 |
| 20260505054019 | 19 | 249 | 6.4 | 14.5 | 0.00 | 0.00 | 0.00 | 61 | 1004.8 |
| 20260505053516 | 19 | 162 | 6.4 | 11.3 | 0.00 | 0.00 | 0.00 | 61 | 1004.7 |
| 20260505053013 | 19 | 200 | 9.7 | 12.9 | 0.00 | 0.00 | 0.00 | 61 | 1004.7 |
| 20260505052510 | 19 | 198 | 4.8 | 12.9 | 0.00 | 0.00 | 0.00 | 61 | 1004.6 |
| 20260505052007 | 20 | 202 | 8.0 | 11.3 | 0.00 | 0.00 | 0.00 | 60 | 1004.8 |
| 20260505051504 | 20 | 233 | 4.8 | 11.3 | 0.00 | 0.00 | 0.00 | 60 | 1004.8 |
| 20260505051002 | 19 | 171 | 12.9 | 16.1 | 0.00 | 0.00 | 0.00 | 60 | 1004.8 |
| 20260505050500 | 20 | 204 | 6.4 | 11.3 | 0.00 | 0.00 | 0.00 | 60 | 1005.0 |
| 20260505041427 | 20 | 209 | 9.7 | 14.5 | 0.00 | 0.46 | 0.46 | 59 | 1004.6 |
| 20260505040925 | 20 | 203 | 3.2 | 14.5 | 0.00 | 0.46 | 0.46 | 60 | 1004.7 |
| 20260505040422 | 20 | 237 | 4.8 | 12.9 | 0.00 | 0.46 | 0.46 | 59 | 1004.8 |
| 20260505035919 | 20 | 165 | 6.4 | 12.9 | 0.00 | 0.46 | 0.46 | 59 | 1004.7 |
| 20260505035415 | 19 | 182 | 9.7 | 14.5 | 0.00 | 0.46 | 0.46 | 59 | 1004.7 |
| 20260505034912 | 19 | 215 | 9.7 | 14.5 | 0.00 | 0.46 | 0.46 | 60 | 1004.6 |
| 20260505034408 | 19 | 222 | 4.8 | 11.3 | 0.00 | 0.46 | 0.46 | 59 | 1004.7 |
| 20260505033906 | 19 | 213 | 4.8 | 14.5 | 0.00 | 0.46 | 0.46 | 60 | 1004.8 |
| 20260505033402 | 19 | 193 | 4.8 | 11.3 | 0.00 | 0.46 | 0.46 | 59 | 1004.9 |
| 20260505032901 | 20 | 180 | 4.8 | 12.9 | 0.00 | 0.46 | 0.46 | 59 | 1004.9 |
| 20260505032357 | 20 | 154 | 6.4 | 12.9 | 0.00 | 0.46 | 0.46 | 59 | 1004.9 |
| 20260505031854 | 20 | 222 | 8.0 | 14.5 | 0.00 | 0.46 | 0.46 | 59 | 1004.9 |
| 20260505031351 | 20 | 203 | 6.4 | 6.4 | 0.00 | 0.46 | 0.46 | 58 | 1004.9 |
| 20260505030848 | 20 | 212 | 4.8 | 14.5 | 0.00 | 0.46 | 0.46 | 58 | 1004.8 |
| 20260505030343 | 20 | 174 | 9.7 | 17.7 | 0.00 | 0.46 | 0.46 | 58 | 1004.6 |
| 20260505025839 | 20 | 187 | 9.7 | 14.5 | 0.00 | 0.46 | 0.46 | 58 | 1005.0 |
| 20260505025337 | 20 | 211 | 4.8 | 12.9 | 0.00 | 0.46 | 0.46 | 58 | 1004.9 |
| 20260505024836 | 20 | 174 | 11.3 | 14.5 | 0.00 | 0.46 | 0.46 | 58 | 1004.8 |
| 20260505024333 | 20 | 189 | 9.7 | 12.9 | 0.00 | 0.46 | 0.46 | 57 | 1004.6 |
| 20260505023830 | 20 | 206 | 9.7 | 12.9 | 0.00 | 0.46 | 0.46 | 57 | 1004.6 |
| 20260505023326 | 20 | 166 | 8.0 | 12.9 | 0.00 | 0.46 | 0.46 | 57 | 1004.6 |
| 20260505022824 | 20 | 189 | 9.7 | 12.9 | 0.00 | 0.46 | 0.46 | 57 | 1004.7 |
| 20260505022321 | 20 | 172 | 12.9 | 16.1 | 0.00 | 0.46 | 0.46 | 57 | 1004.5 |
| 20260505021818 | 20 | 188 | 9.7 | 17.7 | 0.00 | 0.46 | 0.46 | 57 | 1004.6 |
| 20260505021315 | 20 | 175 | 11.3 | 16.1 | 0.00 | 0.46 | 0.46 | 57 | 1004.7 |
| 20260505020810 | 20 | 175 | 11.3 | 17.7 | 0.00 | 0.46 | 0.46 | 57 | 1004.6 |
| 20260505020306 | 20 | 198 | 9.7 | 16.1 | 0.00 | 0.46 | 0.46 | 56 | 1004.9 |
| 20260505015803 | 21 | 208 | 8.0 | 20.9 | 0.00 | 0.46 | 0.46 | 55 | 1004.5 |
| 20260505015300 | 21 | 243 | 11.3 | 22.5 | 0.00 | 0.46 | 0.46 | 54 | 1004.5 |
| 20260505014757 | 21 | 173 | 9.7 | 14.5 | 0.00 | 0.46 | 0.46 | 53 | 1004.5 |
| 20260505014255 | 21 | 158 | 11.3 | 17.7 | 0.00 | 0.46 | 0.46 | 52 | 1004.5 |
| 20260505013751 | 21 | 231 | 3.2 | 12.9 | 0.00 | 0.46 | 0.46 | 50 | 1004.4 |
| 20260505013248 | 22 | 204 | 6.4 | 16.1 | 0.00 | 0.46 | 0.46 | 49 | 1004.3 |
| 20260505012746 | 22 | 189 | 8.0 | 20.9 | 0.00 | 0.46 | 0.46 | 49 | 1004.0 |
| 20260505012243 | 22 | 176 | 14.5 | 27.4 | 0.00 | 0.46 | 0.46 | 49 | 1004.0 |
| 20260505011739 | 22 | 179 | 11.3 | 24.1 | 0.00 | 0.46 | 0.46 | 49 | 1003.9 |
| 20260505011236 | 22 | 219 | 9.7 | 29.0 | 0.00 | 0.46 | 0.46 | 49 | 1003.7 |
| 20260505010732 | 22 | 188 | 12.9 | 16.1 | 0.00 | 0.46 | 0.46 | 49 | 1003.3 |
| 20260505010228 | 22 | 170 | 11.3 | 24.1 | 0.00 | 0.46 | 0.46 | 49 | 1003.3 |
| 20260505005725 | 22 | 191 | 17.7 | 22.5 | 0.00 | 0.46 | 0.46 | 49 | 1003.8 |
| 20260505005222 | 22 | 183 | 11.3 | 22.5 | 0.00 | 0.46 | 0.46 | 50 | 1003.9 |
| 20260505004719 | 21 | 217 | 6.4 | 14.5 | 0.00 | 0.46 | 0.46 | 49 | 1004.0 |
| 20260505004215 | 21 | 249 | 8.0 | 12.9 | 0.00 | 0.46 | 0.46 | 49 | 1004.1 |
| 20260505003713 | 21 | 189 | 8.0 | 14.5 | 0.00 | 0.46 | 0.46 | 49 | 1003.6 |
| 20260505003211 | 21 | 188 | 9.7 | 12.9 | 0.00 | 0.46 | 0.46 | 48 | 1003.8 |
| 20260505002707 | 22 | 205 | 4.8 | 9.7 | 0.00 | 0.46 | 0.46 | 48 | 1003.8 |
| 20260505002204 | 22 | 201 | 6.4 | 16.1 | 0.00 | 0.46 | 0.46 | 48 | 1003.7 |
| 20260505001701 | 22 | 171 | 14.5 | 17.7 | 0.00 | 0.46 | 0.46 | 47 | 1003.9 |
| 20260505001159 | 22 | 208 | 4.8 | 14.5 | 0.00 | 0.46 | 0.46 | 47 | 1003.9 |
| 20260505000656 | 22 | 181 | 3.2 | 16.1 | 0.00 | 0.46 | 0.46 | 46 | 1003.7 |
| 20260505000154 | 22 | 192 | 6.4 | 14.5 | 0.00 | 0.46 | 0.46 | 46 | 1003.6 |
| 20260504235650 | 22 | 166 | 9.7 | 14.5 | 0.00 | 0.46 | 0.46 | 46 | 1003.7 |
| 20260504235146 | 22 | 173 | 4.8 | 14.5 | 0.00 | 0.46 | 0.46 | 45 | 1003.8 |
| 20260504234644 | 23 | 192 | 6.4 | 14.5 | 0.00 | 0.46 | 0.46 | 44 | 1003.8 |
| 20260504234141 | 23 | 188 | 6.4 | 12.9 | 0.00 | 0.46 | 0.46 | 44 | 1003.8 |
| 20260504233636 | 23 | 201 | 4.8 | 6.4 | 0.00 | 0.46 | 0.46 | 45 | 1003.9 |
| 20260504233132 | 23 | 234 | 0.0 | 12.9 | 0.00 | 0.46 | 0.46 | 44 | 1004.0 |
| 20260504232631 | 23 | 179 | 16.1 | 27.4 | 0.00 | 0.46 | 0.46 | 43 | 1004.0 |
| 20260504232127 | 24 | 206 | 4.8 | 17.7 | 0.00 | 0.46 | 0.46 | 44 | 1004.1 |
| 20260504231624 | 24 | 242 | 4.8 | 9.7 | 0.00 | 0.46 | 0.46 | 43 | 1004.3 |
| 20260504231120 | 25 | 198 | 3.2 | 9.7 | 0.00 | 0.46 | 0.46 | 43 | 1004.1 |
| 20260504230616 | 25 | 231 | 6.4 | 11.3 | 0.00 | 0.46 | 0.46 | 42 | 1004.4 |
| 20260504230115 | 25 | 185 | 14.5 | 24.1 | 0.00 | 0.46 | 0.46 | 41 | 1004.2 |
| 20260504225613 | 25 | 215 | 3.2 | 12.9 | 0.00 | 0.46 | 0.46 | 40 | 1004.3 |
| 20260504225109 | 25 | 219 | 3.2 | 11.3 | 0.00 | 0.46 | 0.46 | 41 | 1004.2 |
| 20260504224606 | 25 | 171 | 9.7 | 14.5 | 0.00 | 0.46 | 0.46 | 42 | 1004.2 |
| 20260504224103 | 25 | 175 | 8.0 | 16.1 | 0.00 | 0.46 | 0.46 | 42 | 1004.3 |
| 20260504223600 | 25 | 198 | 8.0 | 16.1 | 0.00 | 0.46 | 0.46 | 42 | 1004.1 |
| 20260504223055 | 24 | 235 | 6.4 | 16.1 | 0.00 | 0.46 | 0.46 | 43 | 1004.1 |
| 20260504222553 | 23 | 198 | 3.2 | 14.5 | 0.00 | 0.46 | 0.46 | 44 | 1004.1 |
| 20260504222050 | 24 | 201 | 4.8 | 24.1 | 0.00 | 0.46 | 0.46 | 42 | 1004.1 |
| 20260504221547 | 25 | 216 | 8.0 | 17.7 | 0.00 | 0.46 | 0.46 | 43 | 1004.3 |
| 20260504221044 | 24 | 213 | 12.9 | 17.7 | 0.00 | 0.46 | 0.46 | 43 | 1004.1 |
| 20260504220540 | 23 | 198 | 8.0 | 16.1 | 0.00 | 0.46 | 0.46 | 44 | 1004.1 |
| 20260504220037 | 23 | 208 | 8.0 | 20.9 | 0.00 | 0.46 | 0.46 | 45 | 1004.2 |
| 20260504215534 | 23 | 188 | 14.5 | 20.9 | 0.00 | 0.46 | 0.46 | 46 | 1004.2 |
| 20260504215031 | 23 | 203 | 6.4 | 24.1 | 0.00 | 0.46 | 0.46 | 46 | 1004.5 |
| 20260504214527 | 23 | 169 | 16.1 | 24.1 | 0.00 | 0.46 | 0.46 | 47 | 1004.6 |
| 20260504214024 | 23 | 182 | 3.2 | 12.9 | 0.00 | 0.46 | 0.46 | 47 | 1004.9 |
| 20260504213521 | 23 | 177 | 6.4 | 12.9 | 0.00 | 0.46 | 0.46 | 50 | 1004.7 |
| 20260504213018 | 23 | 233 | 6.4 | 14.5 | 0.00 | 0.46 | 0.46 | 49 | 1004.8 |
| 20260504212513 | 23 | 193 | 3.2 | 12.9 | 0.00 | 0.46 | 0.46 | 49 | 1004.9 |
| 20260504212011 | 23 | 175 | 9.7 | 20.9 | 0.00 | 0.46 | 0.46 | 51 | 1004.6 |
| 20260504211508 | 22 | 178 | 4.8 | 6.4 | 0.00 | 0.46 | 0.46 | 55 | 1004.6 |
| 20260504211005 | 22 | 187 | 8.0 | 11.3 | 0.00 | 0.46 | 0.46 | 57 | 1004.6 |
| 20260504210502 | 21 | 196 | 6.4 | 12.9 | 0.00 | 0.46 | 0.46 | 57 | 1004.5 |
| 20260504205958 | 21 | 179 | 6.4 | 14.5 | 0.00 | 0.46 | 0.46 | 60 | 1004.6 |
| 20260504205456 | 21 | 233 | 4.8 | 12.9 | 0.00 | 0.46 | 0.46 | 60 | 1004.7 |
| 20260504204954 | 21 | 171 | 11.3 | 14.5 | 0.00 | 0.46 | 0.46 | 61 | 1004.9 |
| 20260504204452 | 21 | 153 | 6.4 | 14.5 | 0.00 | 0.46 | 0.46 | 60 | 1005.1 |
| 20260504203951 | 21 | 174 | 11.3 | 17.7 | 0.00 | 0.46 | 0.46 | 62 | 1005.4 |
| 20260504203448 | 21 | 170 | 9.7 | 12.9 | 0.00 | 0.46 | 0.46 | 64 | 1005.7 |
| 20260504202944 | 21 | 174 | 8.0 | 16.1 | 0.00 | 0.46 | 0.46 | 64 | 1005.8 |
| 20260504202441 | 21 | 190 | 11.3 | 12.9 | 0.00 | 0.46 | 0.46 | 64 | 1006.1 |
| 20260504201937 | 21 | 271 | 6.4 | 11.3 | 0.00 | 0.46 | 0.46 | 65 | 1006.2 |
| 20260504201435 | 20 | 162 | 8.0 | 12.9 | 0.00 | 0.46 | 0.46 | 65 | 1006.1 |
| 20260504200932 | 20 | 190 | 3.2 | 16.1 | 0.00 | 0.46 | 0.46 | 65 | 1006.3 |
| 20260504200429 | 20 | 166 | 8.0 | 14.5 | 0.00 | 0.46 | 0.46 | 66 | 1006.3 |
| 20260504195926 | 20 | 193 | 11.3 | 14.5 | 0.00 | 0.46 | 0.46 | 65 | 1006.4 |
| 20260504195421 | 20 | 183 | 9.7 | 17.7 | 0.00 | 0.46 | 0.46 | 65 | 1006.5 |
| 20260504194918 | 20 | 201 | 3.2 | 14.5 | 0.00 | 0.46 | 0.46 | 66 | 1006.6 |
| 20260504194414 | 20 | 220 | 8.0 | 17.7 | 0.00 | 0.46 | 0.46 | 65 | 1006.5 |
| 20260504193910 | 20 | 176 | 8.0 | 20.9 | 0.00 | 0.46 | 0.46 | 66 | 1006.3 |
| 20260504193408 | 20 | 175 | 16.1 | 27.4 | 0.00 | 0.46 | 0.46 | 66 | 1005.9 |
| 20260504192906 | 19 | 173 | 22.5 | 29.0 | 0.00 | 0.46 | 0.46 | 66 | 1005.9 |
| 20260504192403 | 19 | 161 | 14.5 | 22.5 | 0.00 | 0.46 | 0.46 | 67 | 1006.1 |
| 20260504191902 | 19 | 175 | 17.7 | 29.0 | 0.00 | 0.46 | 0.46 | 67 | 1006.6 |
| 20260504191400 | 20 | 184 | 12.9 | 22.5 | 0.00 | 0.46 | 0.46 | 66 | 1007.4 |
| 20260504190855 | 20 | 202 | 9.7 | 20.9 | 0.00 | 0.46 | 0.46 | 66 | 1007.4 |
| 20260504190351 | 20 | 184 | 8.0 | 20.9 | 0.00 | 0.46 | 0.46 | 64 | 1007.1 |
| 20260504185848 | 20 | 210 | 6.4 | 9.7 | 0.00 | 0.46 | 0.46 | 63 | 1007.1 |
| 20260504185345 | 20 | 209 | 4.8 | 6.4 | 0.00 | 0.46 | 0.46 | 62 | 1007.6 |
| 20260504184841 | 20 | 190 | 8.0 | 11.3 | 0.00 | 0.46 | 0.46 | 61 | 1006.7 |
| 20260504184337 | 21 | 175 | 8.0 | 9.7 | 0.00 | 0.46 | 0.46 | 61 | 1006.7 |
| 20260504183832 | 21 | 206 | 3.2 | 9.7 | 0.00 | 0.46 | 0.46 | 60 | 1007.0 |
| 20260504183330 | 21 | 170 | 3.2 | 11.3 | 0.00 | 0.46 | 0.46 | 61 | 1007.0 |
| 20260504182828 | 21 | 171 | 8.0 | 11.3 | 0.00 | 0.46 | 0.46 | 59 | 1007.2 |
| 20260504182325 | 21 | 168 | 6.4 | 11.3 | 0.00 | 0.46 | 0.46 | 59 | 1007.0 |
| 20260504181822 | 21 | 226 | 6.4 | 11.3 | 0.00 | 0.46 | 0.46 | 61 | 1007.0 |
| 20260504181319 | 21 | 167 | 3.2 | 16.1 | 0.00 | 0.46 | 0.46 | 60 | 1006.9 |
| 20260504180818 | 21 | 238 | 4.8 | 6.4 | 0.00 | 0.46 | 0.46 | 60 | 1007.0 |
| 20260504180316 | 21 | 183 | 8.0 | 12.9 | 0.00 | 0.46 | 0.46 | 61 | 1006.9 |
| 20260504175814 | 21 | 197 | 4.8 | 6.4 | 0.00 | 0.46 | 0.46 | 61 | 1006.7 |
| 20260504175310 | 21 | 192 | 4.8 | 6.4 | 0.00 | 0.46 | 0.46 | 60 | 1006.8 |
| 20260504174809 | 21 | 196 | 0.0 | 4.8 | 0.00 | 0.46 | 0.46 | 61 | 1006.6 |
| 20260504174306 | 21 | 222 | 0.0 | 6.4 | 0.00 | 0.46 | 0.46 | 60 | 1007.0 |
| 20260504173802 | 21 | 257 | 4.8 | 6.4 | 0.00 | 0.46 | 0.46 | 61 | 1007.0 |
| 20260504173259 | 21 | 212 | 4.8 | 6.4 | 0.00 | 0.46 | 0.46 | 62 | 1007.1 |
| 20260504172756 | 21 | 156 | 4.8 | 4.8 | 0.00 | 0.46 | 0.46 | 62 | 1007.2 |
| 20260504172253 | 21 | 162 | 6.4 | 11.3 | 0.00 | 0.46 | 0.46 | 61 | 1007.1 |
| 20260504171748 | 21 | 221 | 1.6 | 6.4 | 0.00 | 0.46 | 0.46 | 61 | 1007.2 |
| 20260504171246 | 21 | 214 | 6.4 | 6.4 | 0.00 | 0.46 | 0.46 | 63 | 1007.1 |
| 20260504170459 | 21 | 222 | 1.6 | 6.4 | 0.00 | 0.46 | 0.46 | 63 | 1007.6 |
| 20260504160419 | 21 | 227 | 4.8 | 9.7 | 0.00 | 0.46 | 0.46 | 64 | 1008.0 |
| 20260504150843 | 18 | 191 | 4.8 | 9.7 | 0.00 | 0.46 | 0.46 | 75 | 1008.1 |
| 20260504150339 | 18 | 159 | 9.7 | 14.5 | 0.00 | 0.46 | 0.46 | 76 | 1008.1 |
| 20260504141309 | 16 | 174 | 6.4 | 6.4 | 0.00 | 0.46 | 0.46 | 78 | 1008.8 |
| 20260504140806 | 16 | 256 | 3.2 | 14.5 | 0.00 | 0.46 | 0.46 | 79 | 1008.7 |
| 20260504140302 | 16 | 208 | 9.7 | 14.5 | 0.00 | 0.46 | 0.46 | 80 | 1008.8 |